createdAt,value
2023-04-07T00:01:00.865Z,4.70
2023-04-07T00:03:27.736Z,5.68
2023-04-07T00:05:55.475Z,5.72
2023-04-07T00:08:22.661Z,5.23
2023-04-07T00:10:50.111Z,5.00
2023-04-07T00:13:17.381Z,4.93
2023-04-07T00:15:44.642Z,5.40
2023-04-07T00:18:11.905Z,4.47
2023-04-07T00:20:39.264Z,4.83
2023-04-07T00:23:06.628Z,4.40
2023-04-07T00:25:33.919Z,3.90
2023-04-07T00:28:00.759Z,4.70
2023-04-07T00:30:28.152Z,4.40
2023-04-07T00:32:54.976Z,3.77
2023-04-07T00:35:22.455Z,4.32
2023-04-07T00:37:49.738Z,3.97
2023-04-07T00:40:17.573Z,4.28
2023-04-07T00:42:44.623Z,3.88
2023-04-07T00:45:11.917Z,4.07
2023-04-07T00:47:39.653Z,5.38
2023-04-07T00:50:07.226Z,3.65
2023-04-07T00:52:34.636Z,4.30
2023-04-07T00:55:02.242Z,4.55
2023-04-07T00:57:29.537Z,4.70
2023-04-07T00:59:56.906Z,4.43
2023-04-07T01:02:34.075Z,5.35
2023-04-07T01:05:21.389Z,4.65
2023-04-07T01:08:04.935Z,4.82
2023-04-07T01:10:55.811Z,5.00
2023-04-07T01:13:42.375Z,4.43
2023-04-07T01:16:32.668Z,4.85
2023-04-07T01:19:25.003Z,5.35
2023-04-07T01:21:59.068Z,4.57
2023-04-07T01:24:55.980Z,4.73
2023-04-07T01:27:49.366Z,5.13
2023-04-07T01:30:17.679Z,5.03
2023-04-07T01:32:49.095Z,5.00
2023-04-07T01:35:19.141Z,5.47
2023-04-07T01:37:49.408Z,6.03
2023-04-07T01:40:17.641Z,5.20
2023-04-07T01:42:46.037Z,5.90
2023-04-07T01:45:13.461Z,6.00
2023-04-07T01:47:40.821Z,6.38
2023-04-07T01:50:11.020Z,6.27
2023-04-07T01:52:39.099Z,6.03
2023-04-07T01:55:07.083Z,6.45
2023-04-07T01:57:38.267Z,6.63
2023-04-07T02:00:12.479Z,6.43
2023-04-07T02:02:55.861Z,6.87
2023-04-07T02:05:23.441Z,6.07
2023-04-07T02:07:55.809Z,6.07
2023-04-07T02:10:27.037Z,5.18
2023-04-07T02:12:58.602Z,5.68
2023-04-07T02:15:27.844Z,5.17
2023-04-07T02:17:56.073Z,4.82
2023-04-07T02:20:23.603Z,5.28
2023-04-07T02:22:50.907Z,5.43
2023-04-07T02:25:32.507Z,5.70
2023-04-07T02:28:00.849Z,5.63
2023-04-07T02:30:28.353Z,4.93
2023-04-07T02:32:56.885Z,4.50
2023-04-07T02:35:23.920Z,5.00
2023-04-07T02:37:51.310Z,6.10
2023-04-07T02:40:18.551Z,5.70
2023-04-07T02:42:45.922Z,4.80
2023-04-07T02:45:13.155Z,5.00
2023-04-07T02:47:40.502Z,4.63
2023-04-07T02:50:08.195Z,4.88
2023-04-07T02:52:36.091Z,5.03
2023-04-07T02:55:08.582Z,5.10
2023-04-07T02:57:36.129Z,5.35
2023-04-07T03:00:07.269Z,4.47
2023-04-07T03:02:52.652Z,4.88
2023-04-07T03:05:21.219Z,4.83
2023-04-07T03:07:48.391Z,4.35
2023-04-07T03:10:15.601Z,4.47
2023-04-07T03:12:43.439Z,4.68
2023-04-07T03:15:11.789Z,4.72
2023-04-07T03:17:42.390Z,4.30
2023-04-07T03:20:11.023Z,5.43
2023-04-07T03:22:38.670Z,5.53
2023-04-07T03:25:11.008Z,5.28
2023-04-07T03:27:38.246Z,5.32
2023-04-07T03:30:07.907Z,4.97
2023-04-07T03:32:35.617Z,5.38
2023-04-07T03:35:02.543Z,5.22
2023-04-07T03:37:29.720Z,5.50
2023-04-07T03:39:57.089Z,5.80
2023-04-07T03:42:31.730Z,5.50
2023-04-07T03:45:03.161Z,4.35
2023-04-07T03:47:32.712Z,5.03
2023-04-07T03:50:02.697Z,4.95
2023-04-07T03:52:34.575Z,4.97
2023-04-07T03:55:11.113Z,4.07
2023-04-07T03:57:38.482Z,4.57
2023-04-07T04:00:06.104Z,4.10
2023-04-07T04:02:43.633Z,4.68
2023-04-07T04:05:17.642Z,4.75
2023-04-07T04:07:45.204Z,3.80
2023-04-07T04:10:12.314Z,5.22
2023-04-07T04:12:43.472Z,5.40
2023-04-07T04:15:13.441Z,5.28
2023-04-07T04:17:41.567Z,4.82
2023-04-07T04:20:09.893Z,5.10
2023-04-07T04:22:46.422Z,5.72
2023-04-07T04:25:13.809Z,6.15
2023-04-07T04:27:45.699Z,6.32
2023-04-07T04:30:20.005Z,6.30
2023-04-07T04:32:53.558Z,6.17
2023-04-07T04:35:28.041Z,7.57
2023-04-07T04:38:06.362Z,7.20
2023-04-07T04:40:34.815Z,7.40
2023-04-07T04:43:06.773Z,7.65
2023-04-07T04:45:36.377Z,7.13
2023-04-07T04:48:04.519Z,7.15
2023-04-07T04:50:31.753Z,7.35
2023-04-07T04:52:59.186Z,6.78
2023-04-07T04:55:27.351Z,6.80
2023-04-07T04:57:55.337Z,7.20
2023-04-07T05:00:32.214Z,6.50
2023-04-07T05:03:04.400Z,6.57
2023-04-07T05:05:36.876Z,7.55
2023-04-07T05:08:04.337Z,7.10
2023-04-07T05:10:39.522Z,7.20
2023-04-07T05:13:09.290Z,6.80
2023-04-07T05:15:37.187Z,5.75
2023-04-07T05:18:07.793Z,5.45
2023-04-07T05:20:35.575Z,5.85
2023-04-07T05:23:03.205Z,5.40
2023-04-07T05:25:33.751Z,6.18
2023-04-07T05:28:04.819Z,6.35
2023-04-07T05:30:32.630Z,7.30
2023-04-07T05:32:59.991Z,6.88
2023-04-07T05:35:56.575Z,6.70
2023-04-07T05:38:23.957Z,7.03
2023-04-07T05:40:54.702Z,7.50
2023-04-07T05:43:26.632Z,7.50
2023-04-07T05:45:53.932Z,7.68
2023-04-07T05:48:22.172Z,7.63
2023-04-07T05:50:49.167Z,7.38
2023-04-07T05:53:18.742Z,8.65
2023-04-07T05:55:46.691Z,7.60
2023-04-07T05:58:23.354Z,6.72
2023-04-07T06:00:54.220Z,6.77
2023-04-07T06:03:22.111Z,7.20
2023-04-07T06:06:05.523Z,7.35
2023-04-07T06:08:33.008Z,7.45
2023-04-07T06:11:01.935Z,7.63
2023-04-07T06:13:29.128Z,7.20
2023-04-07T06:15:56.855Z,7.13
2023-04-07T06:18:24.093Z,7.88
2023-04-07T06:20:51.355Z,7.85
2023-04-07T06:23:19.219Z,7.82
2023-04-07T06:25:46.402Z,8.20
2023-04-07T06:28:13.666Z,7.40
2023-04-07T06:30:41.174Z,6.97
2023-04-07T06:33:11.859Z,7.70
2023-04-07T06:35:41.458Z,6.57
2023-04-07T06:38:08.602Z,6.90
2023-04-07T06:40:35.926Z,6.60
2023-04-07T06:43:04.146Z,5.45
2023-04-07T06:45:41.925Z,6.57
2023-04-07T06:48:11.058Z,5.20
2023-04-07T06:50:38.690Z,5.00
2023-04-07T06:53:06.058Z,4.60
2023-04-07T06:55:33.341Z,5.20
2023-04-07T06:58:00.630Z,4.20
2023-04-07T07:00:30.218Z,4.20
2023-04-07T07:02:57.977Z,4.33
2023-04-07T07:05:25.523Z,4.50
2023-04-07T07:07:52.746Z,4.63
2023-04-07T07:10:23.040Z,4.30
2023-04-07T07:12:52.157Z,3.90
2023-04-07T07:15:19.505Z,4.37
2023-04-07T07:17:46.738Z,4.00
2023-04-07T07:20:14.173Z,5.00
2023-04-07T07:22:41.533Z,4.65
2023-04-07T07:25:08.857Z,4.57
2023-04-07T07:27:36.406Z,4.60
2023-04-07T07:30:03.939Z,5.05
2023-04-07T07:32:31.606Z,4.47
2023-04-07T07:34:59.239Z,4.80
2023-04-07T07:37:26.449Z,5.15
2023-04-07T07:39:53.707Z,4.57
2023-04-07T07:42:21.296Z,3.90
2023-04-07T07:44:48.198Z,4.30
2023-04-07T07:47:15.552Z,4.50
2023-04-07T07:49:43.016Z,4.35
2023-04-07T07:52:11.118Z,5.27
2023-04-07T07:54:38.381Z,4.20
2023-04-07T07:57:06.306Z,4.40
2023-04-07T07:59:33.660Z,4.07
2023-04-07T08:02:01.116Z,4.63
2023-04-07T08:04:28.618Z,5.67
2023-04-07T08:06:56.064Z,3.88
2023-04-07T08:09:23.322Z,3.35
2023-04-07T08:11:51.245Z,4.18
2023-04-07T08:14:19.745Z,5.57
2023-04-07T08:16:47.178Z,4.50
2023-04-07T08:19:14.752Z,4.75
2023-04-07T08:21:42.005Z,4.90
2023-04-07T08:24:10.140Z,4.63
2023-04-07T08:26:37.260Z,5.30
2023-04-07T08:29:04.467Z,5.37
2023-04-07T08:31:31.764Z,4.82
2023-04-07T08:33:59.577Z,6.03
2023-04-07T08:36:28.039Z,4.57
2023-04-07T08:38:55.460Z,6.20
2023-04-07T08:41:32.650Z,4.97
2023-04-07T08:44:01.533Z,5.05
2023-04-07T08:46:28.902Z,7.30
2023-04-07T08:48:57.455Z,5.78
2023-04-07T08:51:31.986Z,4.00
2023-04-07T08:54:22.577Z,4.97
2023-04-07T08:56:50.062Z,4.10
2023-04-07T08:59:18.727Z,3.60
2023-04-07T09:01:47.456Z,3.53
2023-04-07T09:04:15.132Z,4.68
2023-04-07T09:06:42.513Z,3.17
2023-04-07T09:09:09.992Z,3.88
2023-04-07T09:11:39.066Z,3.05
2023-04-07T09:14:06.366Z,3.40
2023-04-07T09:16:33.378Z,4.38
2023-04-07T09:19:00.732Z,2.90
2023-04-07T09:21:28.076Z,3.10
2023-04-07T09:23:55.432Z,3.30
2023-04-07T09:26:28.382Z,3.60
2023-04-07T09:28:59.864Z,3.20
2023-04-07T09:31:48.012Z,4.60
2023-04-07T09:34:25.490Z,3.55
2023-04-07T09:36:52.885Z,4.10
2023-04-07T09:39:20.035Z,4.47
2023-04-07T09:41:47.512Z,4.80
2023-04-07T09:44:14.908Z,5.17
2023-04-07T09:46:59.223Z,8.02
2023-04-07T09:49:26.715Z,6.05
2023-04-07T09:52:07.877Z,4.60
2023-04-07T09:54:39.520Z,4.20
2023-04-07T09:57:12.075Z,4.10
2023-04-07T09:59:45.180Z,5.20
2023-04-07T10:02:12.877Z,4.00
2023-04-07T10:04:41.238Z,4.60
2023-04-07T10:07:08.549Z,5.30
2023-04-07T10:09:36.091Z,5.67
2023-04-07T10:12:04.235Z,6.28
2023-04-07T10:14:32.396Z,6.22
2023-04-07T10:17:01.756Z,5.63
2023-04-07T10:22:08.507Z,5.87
2023-04-07T10:24:47.038Z,5.93
2023-04-07T10:27:19.670Z,5.90
2023-04-07T10:29:50.216Z,5.27
2023-04-07T10:32:17.617Z,6.50
2023-04-07T10:34:50.324Z,5.70
2023-04-07T10:37:21.349Z,7.03
2023-04-07T10:39:49.919Z,5.50
2023-04-07T10:42:41.637Z,5.93
2023-04-07T10:45:10.404Z,7.30
2023-04-07T10:47:59.396Z,5.57
2023-04-07T10:50:28.463Z,4.82
2023-04-07T10:53:12.503Z,6.70
2023-04-07T10:55:39.913Z,6.47
2023-04-07T10:58:29.562Z,7.40
2023-04-07T11:01:12.307Z,7.45
2023-04-07T11:03:42.619Z,6.93
2023-04-07T11:06:14.342Z,5.68
2023-04-07T11:08:43.363Z,5.67
2023-04-07T11:11:15.408Z,5.10
2023-04-07T11:13:47.494Z,5.05
2023-04-07T11:16:16.526Z,4.40
2023-04-07T11:18:44.184Z,4.53
2023-04-07T11:21:11.487Z,4.10
2023-04-07T11:23:40.108Z,4.25
2023-04-07T11:26:08.307Z,4.40
2023-04-07T11:28:36.134Z,4.20
2023-04-07T11:31:03.543Z,3.95
2023-04-07T11:33:31.715Z,4.67
2023-04-07T11:36:00.442Z,5.07
2023-04-07T11:38:29.741Z,5.28
2023-04-07T11:40:57.460Z,5.15
2023-04-07T11:43:27.544Z,6.05
2023-04-07T11:46:04.629Z,6.90
2023-04-07T11:48:32.810Z,5.82
2023-04-07T11:51:00.945Z,8.18
2023-04-07T11:53:29.926Z,8.15
2023-04-07T11:56:04.368Z,7.55
2023-04-07T11:58:31.927Z,8.67
2023-04-07T12:01:04.947Z,6.75
2023-04-07T12:03:32.736Z,6.53
2023-04-07T12:06:00.279Z,7.05
2023-04-07T12:08:44.802Z,7.40
2023-04-07T12:11:12.319Z,5.23
2023-04-07T12:13:39.622Z,5.07
2023-04-07T12:16:06.988Z,5.00
2023-04-07T12:18:34.279Z,4.85
2023-04-07T12:21:01.983Z,5.35
2023-04-07T12:23:29.595Z,5.73
2023-04-07T12:25:56.497Z,5.18
2023-04-07T12:28:23.817Z,4.80
2023-04-07T12:30:51.217Z,5.65
2023-04-07T12:33:18.553Z,4.75
2023-04-07T12:35:46.259Z,4.57
2023-04-07T12:38:13.826Z,3.85
2023-04-07T12:40:41.104Z,4.32
2023-04-07T12:43:08.404Z,4.25
2023-04-07T12:45:35.761Z,4.18
2023-04-07T12:48:03.132Z,3.80
2023-04-07T12:50:30.806Z,4.80
2023-04-07T12:52:59.780Z,5.05
2023-04-07T12:55:27.071Z,4.47
2023-04-07T12:57:55.254Z,4.78
2023-04-07T13:00:22.733Z,3.63
2023-04-07T13:02:50.019Z,4.93
2023-04-07T13:05:18.664Z,5.35
2023-04-07T13:07:47.004Z,4.00
2023-04-07T13:10:15.501Z,5.05
2023-04-07T13:12:42.369Z,5.07
2023-04-07T13:15:09.885Z,5.53
2023-04-07T13:17:37.064Z,6.65
2023-04-07T13:20:05.630Z,4.90
2023-04-07T13:22:34.734Z,6.03
2023-04-07T13:25:03.022Z,5.73
2023-04-07T13:27:30.575Z,5.25
2023-04-07T13:29:57.806Z,6.28
2023-04-07T13:32:25.103Z,5.25
2023-04-07T13:34:52.929Z,5.32
2023-04-07T13:37:20.391Z,5.70
2023-04-07T13:39:48.131Z,6.50
2023-04-07T13:42:19.792Z,6.95
2023-04-07T13:44:48.170Z,6.63
2023-04-07T13:47:19.622Z,6.28
2023-04-07T13:49:47.683Z,6.40
2023-04-07T13:52:15.361Z,6.05
2023-04-07T13:54:43.178Z,7.20
2023-04-07T13:57:10.507Z,9.82
2023-04-07T13:59:37.787Z,6.80
2023-04-07T14:02:05.137Z,8.27
2023-04-07T14:04:33.268Z,6.32
2023-04-07T14:07:00.645Z,6.65
2023-04-07T14:09:27.559Z,7.15
2023-04-07T14:11:54.778Z,5.25
2023-04-07T14:14:21.996Z,5.40
2023-04-07T14:16:52.536Z,5.30
2023-04-07T14:19:24.590Z,4.82
2023-04-07T14:21:52.245Z,5.47
2023-04-07T14:24:19.699Z,5.22
2023-04-07T14:26:47.014Z,5.50
2023-04-07T14:29:14.850Z,4.95
2023-04-07T14:31:41.942Z,4.90
2023-04-07T14:34:09.030Z,4.85
2023-04-07T14:36:36.283Z,4.20
2023-04-07T14:39:03.881Z,4.83
2023-04-07T14:41:31.561Z,4.55
2023-04-07T14:43:58.874Z,5.82
2023-04-07T14:46:29.143Z,11.07
2023-04-07T14:48:58.413Z,7.20
2023-04-07T14:51:25.933Z,7.87
2023-04-07T14:53:56.017Z,6.90
2023-04-07T14:56:24.786Z,9.18
2023-04-07T14:58:52.145Z,5.97
2023-04-07T15:01:19.090Z,6.68
2023-04-07T15:03:47.621Z,6.87
2023-04-07T15:06:16.751Z,6.40
2023-04-07T15:08:44.574Z,6.40
2023-04-07T15:11:11.426Z,6.30
2023-04-07T15:13:38.993Z,6.75
2023-04-07T15:16:10.499Z,6.67
2023-04-07T15:18:39.792Z,6.30
2023-04-07T15:21:07.148Z,5.97
2023-04-07T15:23:34.593Z,5.97
2023-04-07T15:26:01.846Z,5.75
2023-04-07T15:28:29.261Z,5.47
2023-04-07T15:30:56.525Z,5.30
2023-04-07T15:33:24.789Z,5.53
2023-04-07T15:35:51.727Z,5.28
2023-04-07T15:38:18.723Z,5.57
2023-04-07T15:40:46.529Z,5.90
2023-04-07T15:43:13.820Z,5.00
2023-04-07T15:45:42.893Z,6.68
2023-04-07T15:48:10.806Z,5.93
2023-04-07T15:50:37.891Z,6.90
2023-04-07T15:53:05.676Z,6.73
2023-04-07T15:55:33.532Z,8.75
2023-04-07T15:58:01.209Z,8.15
2023-04-07T16:00:29.307Z,7.05
2023-04-07T16:02:56.697Z,9.80
2023-04-07T16:05:23.886Z,8.03
2023-04-07T16:07:51.347Z,8.50
2023-04-07T16:10:19.899Z,9.38
2023-04-07T16:12:47.608Z,9.05
2023-04-07T16:15:20.530Z,11.38
2023-04-07T16:17:53.764Z,11.43
2023-04-07T16:20:21.117Z,11.38
2023-04-07T16:22:48.881Z,13.32
2023-04-07T16:25:16.984Z,10.82
2023-04-07T16:27:45.124Z,11.15
2023-04-07T16:30:13.922Z,12.07
2023-04-07T16:32:46.836Z,20.50
2023-04-07T16:35:17.268Z,13.07
2023-04-07T16:37:46.558Z,20.25
2023-04-07T16:40:13.989Z,20.52
2023-04-07T16:42:41.437Z,17.10
2023-04-07T16:45:08.996Z,20.88
2023-04-07T16:47:36.549Z,12.00
2023-04-07T16:50:04.710Z,13.20
2023-04-07T16:52:32.436Z,12.25
2023-04-07T16:55:01.194Z,14.03
2023-04-07T16:57:28.753Z,13.02
2023-04-07T16:59:56.225Z,13.15
2023-04-07T17:02:23.773Z,15.25
2023-04-07T17:04:51.182Z,12.57
2023-04-07T17:07:19.096Z,15.77
2023-04-07T17:09:46.615Z,13.18
2023-04-07T17:12:13.713Z,12.82
2023-04-07T17:14:41.468Z,9.88
2023-04-07T17:17:08.883Z,11.80
2023-04-07T17:19:36.031Z,9.90
2023-04-07T17:22:03.059Z,10.93
2023-04-07T17:24:30.531Z,11.13
2023-04-07T17:26:57.882Z,12.45
2023-04-07T17:29:28.986Z,14.43
2023-04-07T17:31:56.671Z,13.20
2023-04-07T17:34:24.036Z,13.23
2023-04-07T17:36:51.882Z,13.70
2023-04-07T17:39:19.293Z,14.90
2023-04-07T17:41:47.503Z,15.85
2023-04-07T17:44:14.653Z,13.37
2023-04-07T17:46:42.368Z,14.95
2023-04-07T17:49:09.642Z,17.70
2023-04-07T17:51:36.852Z,15.07
2023-04-07T17:54:04.173Z,14.32
2023-04-07T17:56:31.485Z,14.50
2023-04-07T17:58:58.998Z,14.57
2023-04-07T18:01:26.353Z,13.95
2023-04-07T18:03:54.418Z,13.07
2023-04-07T18:06:21.873Z,13.38
2023-04-07T18:08:49.077Z,13.77
2023-04-07T18:11:17.393Z,14.00
2023-04-07T18:13:44.856Z,12.70
2023-04-07T18:16:17.619Z,12.23
2023-04-07T18:18:46.521Z,15.50
2023-04-07T18:21:13.718Z,12.90
2023-04-07T18:23:41.034Z,13.35
2023-04-07T18:26:08.296Z,12.73
2023-04-07T18:28:36.150Z,18.35
2023-04-07T18:31:08.979Z,15.25
2023-04-07T18:33:36.583Z,14.47
2023-04-07T18:36:09.554Z,17.60
2023-04-07T18:38:38.089Z,16.27
2023-04-07T18:41:06.824Z,16.90
2023-04-07T18:43:34.118Z,13.13
2023-04-07T18:46:01.462Z,13.23
2023-04-07T18:48:28.779Z,13.02
2023-04-07T18:50:56.694Z,11.50
2023-04-07T18:53:25.456Z,12.23
2023-04-07T18:55:52.897Z,11.00
2023-04-07T18:58:20.965Z,11.13
2023-04-07T19:00:53.023Z,11.43
2023-04-07T19:03:20.907Z,12.60
2023-04-07T19:05:48.570Z,12.10
2023-04-07T19:08:16.328Z,12.52
2023-04-07T19:10:43.753Z,12.10
2023-04-07T19:13:11.232Z,11.75
2023-04-07T19:15:40.806Z,12.95
2023-04-07T19:18:08.358Z,15.73
2023-04-07T19:20:35.717Z,12.95
2023-04-07T19:23:03.319Z,12.70
2023-04-07T19:25:31.253Z,17.17
2023-04-07T19:27:58.722Z,14.88
2023-04-07T19:30:26.178Z,14.25
2023-04-07T19:32:53.471Z,14.77
2023-04-07T19:35:21.038Z,14.17
2023-04-07T19:37:48.496Z,13.35
2023-04-07T19:40:15.983Z,17.05
2023-04-07T19:42:43.301Z,21.85
2023-04-07T19:45:10.778Z,19.17
2023-04-07T19:47:38.540Z,18.20
2023-04-07T19:50:06.359Z,15.65
2023-04-07T19:52:33.824Z,16.63
2023-04-07T19:55:01.643Z,14.73
2023-04-07T19:57:30.904Z,16.85
2023-04-07T19:59:58.246Z,17.03
2023-04-07T20:02:25.722Z,18.00
2023-04-07T20:04:53.805Z,16.65
2023-04-07T20:07:20.789Z,17.83
2023-04-07T20:09:50.539Z,15.95
2023-04-07T20:12:17.964Z,16.97
2023-04-07T20:14:45.329Z,15.70
2023-04-07T20:17:12.389Z,15.60
2023-04-07T20:19:40.439Z,17.70
2023-04-07T20:22:07.873Z,15.85
2023-04-07T20:24:35.860Z,14.70
2023-04-07T20:27:03.166Z,15.18
2023-04-07T20:29:30.459Z,16.55
2023-04-07T20:31:57.373Z,15.70
2023-04-07T20:34:24.738Z,16.05
2023-04-07T20:36:52.063Z,12.30
2023-04-07T20:39:18.928Z,16.15
2023-04-07T20:41:46.328Z,16.88
2023-04-07T20:44:13.733Z,16.42
2023-04-07T20:46:42.036Z,15.65
2023-04-07T20:49:09.378Z,13.87
2023-04-07T20:51:36.741Z,16.48
2023-04-07T20:54:04.454Z,15.93
2023-04-07T20:56:32.054Z,14.90
2023-04-07T20:58:59.510Z,16.45
2023-04-07T21:01:26.793Z,16.47
2023-04-07T21:03:54.862Z,15.93
2023-04-07T21:06:22.271Z,16.67
2023-04-07T21:08:49.401Z,14.80
2023-04-07T21:11:16.919Z,18.20
2023-04-07T21:13:44.205Z,18.40
2023-04-07T21:16:11.670Z,18.05
2023-04-07T21:18:38.970Z,17.75
2023-04-07T21:21:08.200Z,17.23
2023-04-07T21:23:35.514Z,19.05
2023-04-07T21:26:05.472Z,16.40
2023-04-07T21:28:32.764Z,15.02
2023-04-07T21:31:01.352Z,15.75
2023-04-07T21:33:28.916Z,14.68
2023-04-07T21:35:56.457Z,18.40
2023-04-07T21:38:23.245Z,19.40
2023-04-07T21:40:50.050Z,17.80
2023-04-07T21:43:17.280Z,16.08
2023-04-07T21:45:44.833Z,18.83
2023-04-07T21:48:11.845Z,20.23
2023-04-07T21:50:39.090Z,13.23
2023-04-07T21:53:07.547Z,17.27
2023-04-07T21:55:34.759Z,17.10
2023-04-07T21:58:02.099Z,19.83
2023-04-07T22:00:29.417Z,16.77
2023-04-07T22:02:56.812Z,21.20
2023-04-07T22:05:24.154Z,21.92
2023-04-07T22:07:51.670Z,20.48
2023-04-07T22:10:18.945Z,19.50
2023-04-07T22:12:46.230Z,18.73
2023-04-07T22:15:13.711Z,21.20
2023-04-07T22:17:41.299Z,21.70
2023-04-07T22:20:10.483Z,21.05
2023-04-07T22:22:37.949Z,16.75
2023-04-07T22:25:05.401Z,20.70
2023-04-07T22:27:32.501Z,20.63
2023-04-07T22:29:59.385Z,20.90
2023-04-07T22:32:26.672Z,20.35
2023-04-07T22:34:53.966Z,18.83
2023-04-07T22:37:21.775Z,21.25
2023-04-07T22:39:49.136Z,20.80
2023-04-07T22:42:16.256Z,15.05
2023-04-07T22:44:43.040Z,20.92
2023-04-07T22:47:10.307Z,19.83
2023-04-07T22:49:37.610Z,19.73
2023-04-07T22:52:04.816Z,20.00
2023-04-07T22:54:32.080Z,18.80
2023-04-07T22:56:59.272Z,20.92
2023-04-07T22:59:26.449Z,20.00
2023-04-07T23:01:53.836Z,18.95
2023-04-07T23:04:22.509Z,20.03
2023-04-07T23:06:49.734Z,19.05
2023-04-07T23:09:17.026Z,20.73
2023-04-07T23:11:47.148Z,19.45
2023-04-07T23:14:14.824Z,17.63
2023-04-07T23:16:42.073Z,17.73
2023-04-07T23:19:15.495Z,20.50
2023-04-07T23:21:43.275Z,16.45
2023-04-07T23:24:10.740Z,18.92
2023-04-07T23:26:37.602Z,17.65
2023-04-07T23:29:04.601Z,15.97
2023-04-07T23:31:32.239Z,18.30
2023-04-07T23:33:59.767Z,14.30
2023-04-07T23:36:27.312Z,14.50
2023-04-07T23:38:57.018Z,15.00
2023-04-07T23:41:24.311Z,14.57
2023-04-07T23:43:51.623Z,15.25
2023-04-07T23:46:18.946Z,15.38
2023-04-07T23:48:46.334Z,14.95
2023-04-07T23:51:13.589Z,14.38
2023-04-07T23:53:41.011Z,14.93
2023-04-07T23:56:07.999Z,13.52
2023-04-07T23:58:34.818Z,13.55
